Time,TemperatureF,DewpointF,PressureIn,WindDirection,WindDirectionDegrees,WindSpeedMPH,WindSpeedGustMPH,Humidity,HourlyPrecipIn,Conditions,Clouds,dailyrainin,SoftwareType,DateUTC
2013-09-14 00:06:00,81.0,76.0,29.79,WSW,247,1.6,-999.0,85,-99.99,,,0.00,Acu-Link.com,2013-09-14 04:06:00,
2013-09-14 00:21:00,80.4,76.2,29.79,West,270,2.7,-999.0,87,-99.99,,,0.00,Acu-Link.com,2013-09-14 04:21:00,
2013-09-14 00:37:00,80.4,76.2,29.79,SSW,202,2.2,-999.0,87,-99.99,,,0.00,Acu-Link.com,2013-09-14 04:37:00,
2013-09-14 00:52:00,80.2,76.4,29.78,South,180,3.1,-999.0,88,-99.99,,,0.00,Acu-Link.com,2013-09-14 04:52:00,
2013-09-14 01:07:00,80.4,76.5,29.79,SSW,202,1.1,-999.0,88,-99.99,,,0.00,Acu-Link.com,2013-09-14 05:07:00,
2013-09-14 01:22:00,80.4,76.5,29.78,West,270,0.0,-999.0,88,-99.99,,,0.00,Acu-Link.com,2013-09-14 05:22:00,
2013-09-14 01:37:00,80.2,76.7,29.78,SSW,202,0.0,-999.0,89,-99.99,,,0.00,Acu-Link.com,2013-09-14 05:37:00,
2013-09-14 01:53:00,79.9,76.3,29.78,ENE,67,2.2,-999.0,89,-99.99,,,0.00,Acu-Link.com,2013-09-14 05:53:00,
2013-09-14 02:08:00,79.0,76.4,29.78,SW,225,1.1,-999.0,92,-99.99,,,0.00,Acu-Link.com,2013-09-14 06:08:00,
2013-09-14 02:23:00,78.8,76.6,29.78,West,270,1.6,-999.0,93,-99.99,,,0.00,Acu-Link.com,2013-09-14 06:23:00,
2013-09-14 02:38:00,78.6,76.4,29.77,West,270,1.6,-999.0,93,-99.99,,,0.00,Acu-Link.com,2013-09-14 06:38:00,
2013-09-14 02:53:00,78.3,76.1,29.78,West,270,2.2,-999.0,93,-99.99,,,0.00,Acu-Link.com,2013-09-14 06:53:00,
2013-09-14 03:09:00,78.3,76.4,29.77,NW,315,0.0,-999.0,94,-99.99,,,0.00,Acu-Link.com,2013-09-14 07:09:00,
2013-09-14 03:24:00,78.3,76.1,29.77,WSW,247,0.0,-999.0,93,-99.99,,,0.00,Acu-Link.com,2013-09-14 07:24:00,
2013-09-14 03:39:00,78.3,76.1,29.77,West,270,1.6,-999.0,93,-99.99,,,0.00,Acu-Link.com,2013-09-14 07:39:00,
2013-09-14 03:54:00,78.1,75.9,29.77,NE,45,2.7,-999.0,93,-99.99,,,0.00,Acu-Link.com,2013-09-14 07:54:00,
2013-09-14 04:10:00,77.9,75.7,29.78,ENE,67,1.1,-999.0,93,-99.99,,,0.00,Acu-Link.com,2013-09-14 08:10:00,
2013-09-14 04:25:00,77.9,75.4,29.78,East,90,1.1,-999.0,92,-99.99,,,0.00,Acu-Link.com,2013-09-14 08:25:00,
2013-09-14 04:41:00,78.1,75.2,29.78,WSW,247,1.6,-999.0,91,-99.99,,,0.00,Acu-Link.com,2013-09-14 08:41:00,
2013-09-14 04:56:00,77.7,75.2,29.78,West,270,1.6,-999.0,92,-99.99,,,0.00,Acu-Link.com,2013-09-14 08:56:00,
2013-09-14 05:11:00,77.7,75.5,29.79,WSW,247,0.0,-999.0,93,-99.99,,,0.00,Acu-Link.com,2013-09-14 09:11:00,
2013-09-14 05:26:00,77.5,75.7,29.79,WSW,247,1.6,-999.0,94,-99.99,,,0.00,Acu-Link.com,2013-09-14 09:26:00,
2013-09-14 05:41:00,77.4,75.5,29.80,ENE,67,2.7,-999.0,94,-99.99,,,0.00,Acu-Link.com,2013-09-14 09:41:00,
2013-09-14 05:56:00,77.0,75.5,29.80,WSW,247,0.0,-999.0,95,-99.99,,,0.01,Acu-Link.com,2013-09-14 09:56:00,
2013-09-14 06:11:00,77.0,75.5,29.80,West,270,1.1,-999.0,95,-99.99,,,0.01,Acu-Link.com,2013-09-14 10:11:00,
2013-09-14 06:26:00,77.0,75.8,29.81,West,270,1.6,-999.0,96,-99.99,,,0.01,Acu-Link.com,2013-09-14 10:26:00,
2013-09-14 06:42:00,77.7,76.2,29.81,South,180,2.2,-999.0,95,-99.99,,,0.01,Acu-Link.com,2013-09-14 10:42:00,
2013-09-14 06:57:00,78.8,76.6,29.82,South,180,0.0,-999.0,93,-99.99,,,0.01,Acu-Link.com,2013-09-14 10:57:00,
2013-09-14 07:12:00,80.2,76.7,29.82,West,270,1.1,-999.0,89,-99.99,,,0.01,Acu-Link.com,2013-09-14 11:12:00,
2013-09-14 07:27:00,79.5,76.0,29.82,West,270,1.1,-999.0,89,-99.99,,,0.01,Acu-Link.com,2013-09-14 11:27:00,
2013-09-14 07:42:00,81.5,76.2,29.83,SSW,202,2.2,-999.0,84,-99.99,,,0.01,Acu-Link.com,2013-09-14 11:42:00,
2013-09-14 07:57:00,82.9,76.1,29.83,SSE,157,2.7,-999.0,80,-99.99,,,0.01,Acu-Link.com,2013-09-14 11:57:00,
2013-09-14 08:13:00,83.5,76.6,29.83,South,180,2.2,-999.0,80,-99.99,,,0.01,Acu-Link.com,2013-09-14 12:13:00,
2013-09-14 08:28:00,84.2,77.0,29.84,ESE,112,3.1,-999.0,79,-99.99,,,0.01,Acu-Link.com,2013-09-14 12:28:00,
2013-09-14 08:43:00,85.3,76.8,29.85,SSW,202,3.1,-999.0,76,-99.99,,,0.01,Acu-Link.com,2013-09-14 12:43:00,
2013-09-14 08:58:00,85.3,77.2,29.85,East,90,3.8,-999.0,77,-99.99,,,0.01,Acu-Link.com,2013-09-14 12:58:00,
2013-09-14 09:14:00,86.0,77.5,29.85,ESE,112,4.7,-999.0,76,-99.99,,,0.01,Acu-Link.com,2013-09-14 13:14:00,
2013-09-14 09:29:00,87.8,77.6,29.85,North,0,3.8,-999.0,72,-99.99,,,0.01,Acu-Link.com,2013-09-14 13:29:00,
2013-09-14 09:44:00,85.8,76.5,29.85,ESE,112,4.7,-999.0,74,-99.99,,,0.01,Acu-Link.com,2013-09-14 13:44:00,
2013-09-14 09:59:00,85.5,76.6,29.85,East,90,5.8,-999.0,75,-99.99,,,0.01,Acu-Link.com,2013-09-14 13:59:00,
2013-09-14 10:14:00,86.5,76.4,29.85,NNE,22,3.8,-999.0,72,-99.99,,,0.01,Acu-Link.com,2013-09-14 14:14:00,
2013-09-14 10:30:00,86.0,77.1,29.85,ESE,112,4.3,-999.0,75,-99.99,,,0.01,Acu-Link.com,2013-09-14 14:30:00,
2013-09-14 10:45:00,85.3,77.2,29.85,NE,45,8.9,-999.0,77,-99.99,,,0.01,Acu-Link.com,2013-09-14 14:45:00,
2013-09-14 11:00:00,83.7,78.7,29.85,ESE,112,7.8,-999.0,85,-99.99,,,0.01,Acu-Link.com,2013-09-14 15:00:00,
2013-09-14 11:15:00,77.4,73.5,29.85,ESE,112,6.7,-999.0,88,-99.99,,,0.19,Acu-Link.com,2013-09-14 15:15:00,
2013-09-14 11:30:00,78.4,75.3,29.85,ESE,112,6.3,-999.0,90,-99.99,,,0.28,Acu-Link.com,2013-09-14 15:30:00,
2013-09-14 11:46:00,78.6,74.4,29.85,ESE,112,3.8,-999.0,87,-99.99,,,0.30,Acu-Link.com,2013-09-14 15:46:00,
2013-09-14 12:01:00,79.0,75.8,29.85,South,180,2.7,-999.0,90,-99.99,,,0.30,Acu-Link.com,2013-09-14 16:01:00,
2013-09-14 12:16:00,82.0,77.4,29.85,East,90,4.3,-999.0,86,-99.99,,,0.30,Acu-Link.com,2013-09-14 16:16:00,
2013-09-14 12:31:00,81.7,77.8,29.84,SE,135,6.3,-999.0,88,-99.99,,,0.30,Acu-Link.com,2013-09-14 16:31:00,
2013-09-14 12:46:00,83.8,77.7,29.84,NE,45,6.3,-999.0,82,-99.99,,,0.30,Acu-Link.com,2013-09-14 16:46:00,
2013-09-14 13:02:00,85.3,77.6,29.83,East,90,7.4,-999.0,78,-99.99,,,0.30,Acu-Link.com,2013-09-14 17:02:00,
2013-09-14 13:17:00,84.0,76.4,29.84,East,90,7.8,-999.0,78,-99.99,,,0.30,Acu-Link.com,2013-09-14 17:17:00,
2013-09-14 13:32:00,86.0,77.1,29.83,ESE,112,8.3,-999.0,75,-99.99,,,0.30,Acu-Link.com,2013-09-14 17:32:00,
2013-09-14 13:47:00,87.3,76.7,29.82,East,90,5.8,-999.0,71,-99.99,,,0.30,Acu-Link.com,2013-09-14 17:47:00,
2013-09-14 14:03:00,87.3,77.5,29.82,SE,135,4.3,-999.0,73,-99.99,,,0.30,Acu-Link.com,2013-09-14 18:03:00,
2013-09-14 14:18:00,85.6,76.8,29.81,East,90,4.7,-999.0,75,-99.99,,,0.30,Acu-Link.com,2013-09-14 18:18:00,
2013-09-14 14:33:00,85.1,76.7,29.81,East,90,4.3,-999.0,76,-99.99,,,0.30,Acu-Link.com,2013-09-14 18:33:00,
2013-09-14 14:48:00,84.9,76.9,29.80,East,90,3.8,-999.0,77,-99.99,,,0.30,Acu-Link.com,2013-09-14 18:48:00,
2013-09-14 15:03:00,84.7,77.5,29.81,ESE,112,3.8,-999.0,79,-99.99,,,0.30,Acu-Link.com,2013-09-14 19:03:00,
2013-09-14 15:19:00,84.4,77.5,29.81,East,90,5.1,-999.0,80,-99.99,,,0.30,Acu-Link.com,2013-09-14 19:19:00,
2013-09-14 15:34:00,84.6,77.3,29.81,ESE,112,5.8,-999.0,79,-99.99,,,0.30,Acu-Link.com,2013-09-14 19:34:00,
2013-09-14 15:49:00,87.6,79.1,29.80,East,90,4.7,-999.0,76,-99.99,,,0.30,Acu-Link.com,2013-09-14 19:49:00,
2013-09-14 16:04:00,88.0,79.0,29.81,East,90,5.1,-999.0,75,-99.99,,,0.30,Acu-Link.com,2013-09-14 20:04:00,
2013-09-14 16:19:00,87.1,78.6,29.81,ENE,67,6.7,-999.0,76,-99.99,,,0.30,Acu-Link.com,2013-09-14 20:19:00,
2013-09-14 16:35:00,86.0,78.7,29.81,ESE,112,8.3,-999.0,79,-99.99,,,0.30,Acu-Link.com,2013-09-14 20:35:00,
2013-09-14 16:50:00,86.5,78.8,29.81,ESE,112,11.0,-999.0,78,-99.99,,,0.30,Acu-Link.com,2013-09-14 20:50:00,
2013-09-14 17:05:00,85.5,77.8,29.81,South,180,6.7,-999.0,78,-99.99,,,0.30,Acu-Link.com,2013-09-14 21:05:00,
2013-09-14 17:20:00,84.7,77.1,29.82,East,90,5.8,-999.0,78,-99.99,,,0.30,Acu-Link.com,2013-09-14 21:20:00,
2013-09-14 17:35:00,84.4,77.1,29.82,East,90,4.7,-999.0,79,-99.99,,,0.30,Acu-Link.com,2013-09-14 21:35:00,
2013-09-14 17:51:00,84.0,77.2,29.83,SSE,157,5.1,-999.0,80,-99.99,,,0.30,Acu-Link.com,2013-09-14 21:51:00,
2013-09-14 18:06:00,83.8,77.4,29.83,ESE,112,5.1,-999.0,81,-99.99,,,0.30,Acu-Link.com,2013-09-14 22:06:00,
2013-09-14 18:21:00,83.7,77.6,29.83,NE,45,4.7,-999.0,82,-99.99,,,0.30,Acu-Link.com,2013-09-14 22:21:00,
2013-09-14 18:36:00,83.3,77.6,29.84,SE,135,3.1,-999.0,83,-99.99,,,0.30,Acu-Link.com,2013-09-14 22:36:00,
2013-09-14 18:52:00,82.9,78.0,29.85,East,90,4.3,-999.0,85,-99.99,,,0.30,Acu-Link.com,2013-09-14 22:52:00,
2013-09-14 19:07:00,82.8,77.8,29.86,ESE,112,3.8,-999.0,85,-99.99,,,0.30,Acu-Link.com,2013-09-14 23:07:00,
2013-09-14 19:22:00,82.8,78.1,29.86,ESE,112,4.7,-999.0,86,-99.99,,,0.30,Acu-Link.com,2013-09-14 23:22:00,
2013-09-14 19:37:00,82.6,78.3,29.86,East,90,2.7,-999.0,87,-99.99,,,0.30,Acu-Link.com,2013-09-14 23:37:00,
2013-09-14 19:52:00,82.4,78.1,29.87,ESE,112,2.2,-999.0,87,-99.99,,,0.30,Acu-Link.com,2013-09-14 23:52:00,
2013-09-14 20:07:00,82.2,78.3,29.87,ESE,112,1.6,-999.0,88,-99.99,,,0.30,Acu-Link.com,2013-09-15 00:07:00,
2013-09-14 20:22:00,82.2,78.3,29.88,SSE,157,2.7,-999.0,88,-99.99,,,0.30,Acu-Link.com,2013-09-15 00:22:00,
2013-09-14 20:38:00,82.0,78.1,29.88,WSW,247,3.1,-999.0,88,-99.99,,,0.30,Acu-Link.com,2013-09-15 00:38:00,
2013-09-14 20:53:00,81.9,77.9,29.88,ESE,112,2.2,-999.0,88,-99.99,,,0.30,Acu-Link.com,2013-09-15 00:53:00,
2013-09-14 21:08:00,81.7,78.1,29.89,ESE,112,3.8,-999.0,89,-99.99,,,0.30,Acu-Link.com,2013-09-15 01:08:00,
2013-09-14 21:23:00,81.7,78.1,29.90,East,90,3.1,-999.0,89,-99.99,,,0.30,Acu-Link.com,2013-09-15 01:23:00,
2013-09-14 21:39:00,81.5,77.9,29.90,East,90,2.2,-999.0,89,-99.99,,,0.30,Acu-Link.com,2013-09-15 01:39:00,
2013-09-14 21:54:00,81.1,77.6,29.91,ESE,112,2.2,-999.0,89,-99.99,,,0.30,Acu-Link.com,2013-09-15 01:54:00,
2013-09-14 22:09:00,81.1,77.6,29.91,South,180,2.7,-999.0,89,-99.99,,,0.30,Acu-Link.com,2013-09-15 02:09:00,
2013-09-14 22:24:00,81.1,77.6,29.91,South,180,1.1,-999.0,89,-99.99,,,0.30,Acu-Link.com,2013-09-15 02:24:00,
2013-09-14 22:39:00,80.8,77.6,29.91,SSE,157,3.8,-999.0,90,-99.99,,,0.30,Acu-Link.com,2013-09-15 02:39:00,
2013-09-14 22:55:00,80.8,77.6,29.91,SSE,157,1.6,-999.0,90,-99.99,,,0.30,Acu-Link.com,2013-09-15 02:55:00,
2013-09-14 23:10:00,80.4,77.2,29.91,SSE,157,1.6,-999.0,90,-99.99,,,0.30,Acu-Link.com,2013-09-15 03:10:00,
2013-09-14 23:25:00,80.2,77.0,29.91,SE,135,0.0,-999.0,90,-99.99,,,0.30,Acu-Link.com,2013-09-15 03:25:00,
2013-09-14 23:40:00,80.1,76.9,29.90,ESE,112,1.1,-999.0,90,-99.99,,,0.30,Acu-Link.com,2013-09-15 03:40:00,
2013-09-14 23:55:00,79.9,76.7,29.90,ESE,112,1.1,-999.0,90,-99.99,,,0.30,Acu-Link.com,2013-09-15 03:55:00,